createdAt,value
2022-12-09T00:01:55.163Z,9.38
2022-12-09T00:04:22.319Z,9.35
2022-12-09T00:06:49.838Z,9.30
2022-12-09T00:09:16.989Z,9.33
2022-12-09T00:11:45.271Z,9.39
2022-12-09T00:14:12.195Z,9.40
2022-12-09T00:16:40.054Z,9.38
2022-12-09T00:19:07.480Z,9.43
2022-12-09T00:21:35.024Z,9.26
2022-12-09T00:24:05.600Z,9.38
2022-12-09T00:26:34.117Z,9.39
2022-12-09T00:29:02.689Z,9.39
2022-12-09T00:31:33.698Z,9.38
2022-12-09T00:34:04.494Z,9.44
2022-12-09T00:36:31.773Z,9.50
2022-12-09T00:38:59.424Z,9.60
2022-12-09T00:41:27.861Z,9.71
2022-12-09T00:43:55.024Z,9.73
2022-12-09T00:46:23.505Z,9.76
2022-12-09T00:48:50.894Z,9.71
2022-12-09T00:51:21.015Z,9.84
2022-12-09T00:53:48.175Z,9.90
2022-12-09T00:56:15.788Z,9.93
2022-12-09T00:58:42.987Z,10.01
2022-12-09T01:01:10.543Z,10.08
2022-12-09T01:03:39.537Z,10.12
2022-12-09T01:06:10.827Z,10.10
2022-12-09T01:08:39.375Z,10.12
2022-12-09T01:11:11.839Z,10.22
2022-12-09T01:13:40.280Z,10.21
2022-12-09T01:16:15.654Z,10.27
2022-12-09T01:18:45.029Z,10.25
2022-12-09T01:21:12.134Z,10.27
2022-12-09T01:23:40.636Z,10.41
2022-12-09T01:26:08.063Z,10.45
2022-12-09T01:28:39.575Z,10.55
2022-12-09T01:31:09.339Z,10.55
2022-12-09T01:33:37.070Z,10.56
2022-12-09T01:36:08.550Z,10.53
2022-12-09T01:38:35.917Z,10.49
2022-12-09T01:41:03.873Z,10.41
2022-12-09T01:43:31.102Z,10.37
2022-12-09T01:45:59.119Z,10.22
2022-12-09T01:48:29.440Z,9.86
2022-12-09T01:51:01.772Z,9.46
2022-12-09T01:53:36.066Z,9.28
2022-12-09T01:56:10.713Z,9.29
2022-12-09T01:58:38.512Z,9.26
2022-12-09T02:01:09.738Z,9.30
2022-12-09T02:03:37.260Z,9.23
2022-12-09T02:06:04.534Z,9.28
2022-12-09T02:08:33.370Z,9.26
2022-12-09T02:11:17.255Z,9.19
2022-12-09T02:13:59.470Z,8.98
2022-12-09T02:16:34.987Z,8.92
2022-12-09T02:19:14.342Z,8.95
2022-12-09T02:21:54.392Z,8.89
2022-12-09T02:24:35.410Z,8.93
2022-12-09T02:27:15.253Z,8.88
2022-12-09T02:30:08.501Z,8.67
2022-12-09T02:33:09.902Z,8.78
2022-12-09T02:35:45.773Z,8.78
2022-12-09T02:38:19.276Z,8.64
2022-12-09T02:40:52.252Z,8.58
2022-12-09T02:43:24.350Z,8.53
2022-12-09T02:45:56.043Z,8.29
2022-12-09T02:48:31.696Z,8.26
2022-12-09T02:51:06.231Z,8.57
2022-12-09T02:53:35.763Z,8.65
2022-12-09T02:56:07.879Z,8.55
2022-12-09T03:01:41.129Z,8.63
2022-12-09T03:04:15.473Z,8.72
2022-12-09T03:06:51.001Z,8.81
2022-12-09T03:09:23.705Z,8.91
2022-12-09T03:11:52.563Z,8.93
2022-12-09T03:14:27.757Z,8.78
2022-12-09T03:17:03.384Z,8.82
2022-12-09T03:19:36.247Z,8.91
2022-12-09T03:22:09.867Z,8.98
2022-12-09T03:24:40.163Z,8.97
2022-12-09T03:27:22.504Z,8.95
2022-12-09T03:29:52.117Z,8.97
2022-12-09T03:35:22.145Z,9.20
2022-12-09T03:37:53.848Z,9.09
2022-12-09T03:40:26.968Z,9.12
2022-12-09T03:43:00.306Z,9.12
2022-12-09T03:45:28.841Z,9.19
2022-12-09T03:47:56.846Z,9.23
2022-12-09T03:50:34.360Z,9.12
2022-12-09T03:53:09.557Z,8.93
2022-12-09T03:55:46.274Z,8.99
2022-12-09T03:58:15.914Z,9.06
2022-12-09T04:00:43.990Z,9.11
2022-12-09T04:03:14.037Z,9.08
2022-12-09T04:05:41.485Z,9.23
2022-12-09T04:08:10.878Z,9.36
2022-12-09T04:10:38.039Z,9.28
2022-12-09T04:13:05.144Z,9.30
2022-12-09T04:15:32.215Z,9.30
2022-12-09T04:17:59.230Z,9.38
2022-12-09T04:20:26.389Z,9.33
2022-12-09T04:22:53.174Z,9.28
2022-12-09T04:25:21.728Z,9.35
2022-12-09T04:27:49.846Z,9.23
2022-12-09T04:30:17.239Z,9.26
2022-12-09T04:35:36.062Z,9.25
2022-12-09T04:38:03.366Z,9.32
2022-12-09T04:40:31.878Z,9.29
2022-12-09T04:42:59.405Z,9.19
2022-12-09T04:45:26.777Z,9.32
2022-12-09T04:47:54.164Z,9.42
2022-12-09T04:50:21.773Z,9.46
2022-12-09T04:52:48.900Z,9.47
2022-12-09T04:55:16.172Z,9.29
2022-12-09T04:57:44.907Z,9.26
2022-12-09T05:00:14.141Z,9.26
2022-12-09T05:02:41.146Z,9.23
2022-12-09T05:05:10.559Z,9.25
2022-12-09T05:07:38.072Z,9.36
2022-12-09T05:10:07.707Z,9.47
2022-12-09T05:12:34.974Z,9.54
2022-12-09T05:15:04.121Z,9.57
2022-12-09T05:17:31.274Z,9.63
2022-12-09T05:19:58.171Z,9.70
2022-12-09T05:22:25.510Z,9.80
2022-12-09T05:24:52.597Z,9.66
2022-12-09T05:27:19.726Z,9.36
2022-12-09T05:29:47.562Z,9.19
2022-12-09T05:32:15.979Z,9.18
2022-12-09T05:34:43.637Z,9.18
2022-12-09T05:37:14.162Z,9.09
2022-12-09T05:39:41.337Z,8.99
2022-12-09T05:42:08.380Z,8.89
2022-12-09T05:44:35.561Z,8.88
2022-12-09T05:47:03.173Z,8.93
2022-12-09T05:49:32.222Z,8.98
2022-12-09T05:52:05.571Z,8.95
2022-12-09T05:54:56.897Z,9.09
2022-12-09T05:57:24.296Z,9.20
2022-12-09T05:59:51.371Z,9.25
2022-12-09T06:02:18.317Z,9.33
2022-12-09T06:04:47.367Z,9.53
2022-12-09T06:07:14.630Z,9.60
2022-12-09T06:09:42.140Z,9.76
2022-12-09T06:12:10.112Z,9.87
2022-12-09T06:14:37.121Z,9.83
2022-12-09T06:17:04.601Z,9.63
2022-12-09T06:19:31.811Z,9.53
2022-12-09T06:22:00.245Z,9.47
2022-12-09T06:24:27.151Z,9.36
2022-12-09T06:26:54.560Z,9.35
2022-12-09T06:29:21.861Z,9.42
2022-12-09T06:31:48.872Z,9.38
2022-12-09T06:34:16.014Z,9.46
2022-12-09T06:36:44.097Z,9.54
2022-12-09T06:39:12.546Z,9.54
2022-12-09T06:41:41.396Z,9.63
2022-12-09T06:44:10.545Z,9.66
2022-12-09T06:46:37.677Z,9.70
2022-12-09T06:49:05.735Z,9.74
2022-12-09T06:51:33.240Z,9.66
2022-12-09T06:54:00.392Z,9.60
2022-12-09T06:56:28.971Z,9.63
2022-12-09T06:58:56.156Z,9.70
2022-12-09T07:01:26.068Z,9.51
2022-12-09T07:03:56.212Z,9.61
2022-12-09T07:06:48.869Z,9.61
2022-12-09T07:09:19.251Z,9.80
2022-12-09T07:11:49.602Z,9.77
2022-12-09T07:14:18.324Z,9.79
2022-12-09T07:16:46.253Z,9.66
2022-12-09T07:19:17.000Z,9.64
2022-12-09T07:21:44.427Z,9.79
2022-12-09T07:24:11.940Z,9.87
2022-12-09T07:26:39.436Z,9.90
2022-12-09T07:29:08.124Z,10.01
2022-12-09T07:31:36.330Z,10.07
2022-12-09T07:34:04.890Z,10.11
2022-12-09T07:36:34.383Z,10.10
2022-12-09T07:39:04.735Z,10.11
2022-12-09T07:41:32.394Z,10.11
2022-12-09T07:43:59.796Z,10.21
2022-12-09T07:46:28.615Z,10.31
2022-12-09T07:48:57.290Z,10.35
2022-12-09T07:51:25.312Z,10.49
2022-12-09T07:53:53.810Z,10.59
2022-12-09T07:56:23.174Z,10.68
2022-12-09T07:58:51.367Z,10.80
2022-12-09T08:01:21.742Z,10.84
2022-12-09T08:03:51.550Z,10.83
2022-12-09T08:06:22.504Z,10.71
2022-12-09T08:08:50.622Z,10.72
2022-12-09T08:11:21.729Z,10.73
2022-12-09T08:13:49.655Z,10.75
2022-12-09T08:16:20.628Z,10.73
2022-12-09T08:18:50.766Z,10.72
2022-12-09T08:21:21.432Z,10.72
2022-12-09T08:23:49.396Z,10.65
2022-12-09T08:26:20.648Z,10.55
2022-12-09T08:28:49.533Z,10.56
2022-12-09T08:31:26.793Z,10.65
2022-12-09T08:33:57.821Z,10.65
2022-12-09T08:36:27.584Z,10.72
2022-12-09T08:38:58.097Z,10.77
2022-12-09T08:41:27.535Z,10.76
2022-12-09T08:43:55.092Z,10.77
2022-12-09T08:46:22.095Z,10.73
2022-12-09T08:48:49.724Z,10.73
2022-12-09T08:51:18.462Z,10.80
2022-12-09T08:53:45.644Z,10.76
2022-12-09T08:56:15.570Z,10.76
2022-12-09T08:58:43.222Z,10.77
2022-12-09T09:01:18.112Z,10.84
2022-12-09T09:03:47.034Z,10.90
2022-12-09T09:06:16.209Z,11.03
2022-12-09T09:08:45.927Z,10.93
2022-12-09T09:11:17.026Z,11.00
2022-12-09T09:13:46.997Z,11.09
2022-12-09T09:16:17.034Z,11.20
2022-12-09T09:18:45.497Z,11.28
2022-12-09T09:21:15.398Z,11.28
2022-12-09T09:23:44.666Z,11.27
2022-12-09T09:26:13.141Z,11.26
2022-12-09T09:28:41.239Z,11.21
2022-12-09T09:31:12.639Z,11.10
2022-12-09T09:33:39.953Z,10.88
2022-12-09T09:36:12.202Z,11.03
2022-12-09T09:38:40.156Z,11.07
2022-12-09T09:41:26.393Z,11.20
2022-12-09T09:43:56.307Z,11.23
2022-12-09T09:46:39.831Z,11.45
2022-12-09T09:49:14.608Z,11.17
2022-12-09T09:51:42.698Z,11.21
2022-12-09T09:54:14.039Z,11.21
2022-12-09T09:56:50.479Z,11.34
2022-12-09T09:59:29.375Z,11.51
2022-12-09T10:02:13.155Z,11.06
2022-12-09T10:07:54.034Z,11.19
2022-12-09T10:10:42.275Z,11.34
2022-12-09T10:13:37.649Z,11.21
2022-12-09T10:16:16.577Z,11.17
2022-12-09T10:19:05.709Z,11.33
2022-12-09T10:21:41.515Z,11.43
2022-12-09T10:24:20.387Z,10.95
2022-12-09T10:26:58.601Z,11.07
2022-12-09T10:29:54.346Z,11.19
2022-12-09T10:32:25.949Z,11.30
2022-12-09T10:34:53.224Z,11.33
2022-12-09T10:37:29.111Z,11.54
2022-12-09T10:40:13.125Z,11.71
2022-12-09T10:42:46.208Z,11.88
2022-12-09T10:45:14.980Z,12.01
2022-12-09T10:47:50.701Z,12.22
2022-12-09T10:50:29.125Z,12.19
2022-12-09T10:52:58.012Z,12.26
2022-12-09T10:55:31.454Z,12.32
2022-12-09T10:58:19.007Z,12.46
2022-12-09T11:01:02.868Z,12.56
2022-12-09T11:03:55.988Z,12.80
2022-12-09T11:06:27.104Z,12.95
2022-12-09T11:08:58.194Z,13.00
2022-12-09T11:11:44.445Z,12.91
2022-12-09T11:14:24.836Z,12.94
2022-12-09T11:16:57.439Z,12.95
2022-12-09T11:19:34.175Z,13.21
2022-12-09T11:22:24.184Z,13.34
2022-12-09T11:25:06.047Z,13.31
2022-12-09T11:27:34.844Z,13.37
2022-12-09T11:30:13.930Z,13.44
2022-12-09T11:33:01.571Z,13.42
2022-12-09T11:35:40.049Z,13.44
2022-12-09T11:38:21.913Z,13.32
2022-12-09T11:41:12.872Z,13.21
2022-12-09T11:44:24.744Z,13.11
2022-12-09T11:47:01.873Z,13.24
2022-12-09T11:49:35.535Z,13.24
2022-12-09T11:52:23.020Z,12.98
2022-12-09T11:55:15.824Z,12.91
2022-12-09T11:57:51.138Z,12.81
2022-12-09T12:00:22.683Z,12.67
2022-12-09T12:03:00.873Z,12.81
2022-12-09T12:05:36.740Z,12.66
2022-12-09T12:08:36.217Z,12.40
2022-12-09T12:11:11.980Z,12.50
2022-12-09T12:13:46.687Z,12.76
2022-12-09T12:16:26.094Z,12.77
2022-12-09T12:18:59.425Z,12.74
2022-12-09T12:21:56.586Z,12.56
2022-12-09T12:24:54.568Z,12.64
2022-12-09T12:27:38.640Z,12.66
2022-12-09T12:30:10.767Z,12.68
2022-12-09T12:33:33.116Z,12.83
2022-12-09T12:35:57.130Z,12.64
2022-12-09T12:38:54.579Z,12.66
2022-12-09T12:41:31.762Z,12.77
2022-12-09T12:44:16.183Z,13.07
2022-12-09T12:46:56.625Z,13.04
2022-12-09T12:50:01.094Z,13.18
2022-12-09T12:53:00.792Z,13.21
2022-12-09T12:55:49.026Z,13.31
2022-12-09T12:58:33.329Z,13.34
2022-12-09T13:04:22.768Z,13.28
2022-12-09T13:06:56.872Z,13.27
2022-12-09T13:09:35.480Z,13.14
2022-12-09T13:12:12.951Z,13.03
2022-12-09T13:14:52.307Z,12.97
2022-12-09T13:17:25.360Z,12.90
2022-12-09T13:19:58.147Z,12.70
2022-12-09T13:22:33.497Z,12.61
2022-12-09T13:25:14.700Z,12.57
2022-12-09T13:27:50.324Z,12.64
2022-12-09T13:30:21.505Z,12.59
2022-12-09T13:33:15.449Z,12.50
2022-12-09T13:35:51.592Z,12.42
2022-12-09T13:38:33.415Z,12.28
2022-12-09T13:41:00.291Z,12.12
2022-12-09T13:43:30.721Z,11.91
2022-12-09T13:46:00.535Z,11.96
2022-12-09T13:48:43.771Z,11.94
2022-12-09T13:51:11.015Z,11.88
2022-12-09T13:53:48.528Z,11.99
2022-12-09T13:56:25.592Z,12.04
2022-12-09T13:59:31.812Z,11.99
2022-12-09T14:02:10.684Z,11.91
2022-12-09T14:04:48.922Z,11.92
2022-12-09T14:07:28.488Z,11.96
2022-12-09T14:09:58.072Z,11.86
2022-12-09T14:13:03.585Z,11.86
2022-12-09T14:15:39.659Z,11.88
2022-12-09T14:18:30.887Z,11.82
2022-12-09T14:21:31.271Z,11.68
2022-12-09T14:24:33.606Z,11.51
2022-12-09T14:27:16.810Z,11.45
2022-12-09T14:29:55.615Z,11.43
2022-12-09T14:32:34.031Z,11.41
2022-12-09T14:35:27.210Z,11.47
2022-12-09T14:38:17.320Z,11.55
2022-12-09T14:40:52.726Z,11.61
2022-12-09T14:43:53.495Z,11.67
2022-12-09T14:46:30.136Z,11.75
2022-12-09T14:49:10.553Z,11.84
2022-12-09T14:51:46.051Z,11.95
2022-12-09T14:54:19.870Z,11.92
2022-12-09T14:56:51.051Z,11.77
2022-12-09T14:59:21.192Z,11.79
2022-12-09T15:01:52.937Z,11.85
2022-12-09T15:04:32.244Z,11.89
2022-12-09T15:07:15.406Z,11.91
2022-12-09T15:09:52.027Z,11.81
2022-12-09T15:12:24.844Z,11.79
2022-12-09T15:14:58.697Z,11.79
2022-12-09T15:17:31.037Z,11.72
2022-12-09T15:20:01.002Z,11.63
2022-12-09T15:22:31.232Z,11.58
2022-12-09T15:24:58.637Z,11.57
2022-12-09T15:27:26.726Z,11.63
2022-12-09T15:29:54.464Z,11.64
2022-12-09T15:32:26.573Z,11.70
2022-12-09T15:34:54.110Z,11.61
2022-12-09T15:37:29.531Z,11.58
2022-12-09T15:40:02.557Z,11.48
2022-12-09T15:42:34.223Z,11.41
2022-12-09T15:45:09.064Z,11.33
2022-12-09T15:47:40.467Z,11.28
2022-12-09T15:50:18.394Z,11.23
2022-12-09T15:52:53.535Z,11.21
2022-12-09T15:55:24.685Z,11.24
2022-12-09T15:57:55.818Z,11.30
2022-12-09T16:00:23.022Z,11.33
2022-12-09T16:02:50.710Z,11.33
2022-12-09T16:05:24.573Z,11.28
2022-12-09T16:07:58.059Z,11.19
2022-12-09T16:10:26.661Z,11.21
2022-12-09T16:13:12.531Z,11.24
2022-12-09T16:16:25.814Z,11.17
2022-12-09T16:18:54.544Z,11.16
2022-12-09T16:21:27.842Z,11.19
2022-12-09T16:24:07.575Z,11.13
2022-12-09T16:26:39.094Z,11.07
2022-12-09T16:29:16.685Z,11.10
2022-12-09T16:31:43.746Z,11.09
2022-12-09T16:34:20.544Z,11.12
2022-12-09T16:36:54.962Z,11.00
2022-12-09T16:39:44.200Z,10.93
2022-12-09T16:42:29.281Z,10.80
2022-12-09T16:45:24.320Z,10.79
2022-12-09T16:47:55.036Z,10.72
2022-12-09T16:50:26.095Z,10.77
2022-12-09T16:52:53.350Z,10.75
2022-12-09T16:55:24.568Z,10.84
2022-12-09T16:57:51.972Z,10.92
2022-12-09T17:00:19.905Z,11.02
2022-12-09T17:02:52.360Z,11.09
2022-12-09T17:05:19.565Z,11.09
2022-12-09T17:07:46.486Z,11.13
2022-12-09T17:10:41.519Z,11.14
2022-12-09T17:13:08.451Z,11.17
2022-12-09T17:15:35.348Z,11.23
2022-12-09T17:18:02.229Z,11.21
2022-12-09T17:20:29.235Z,11.23
2022-12-09T17:22:55.991Z,11.24
2022-12-09T17:25:22.960Z,11.24
2022-12-09T17:27:51.818Z,11.20
2022-12-09T17:30:18.760Z,11.19
2022-12-09T17:32:45.473Z,11.16
2022-12-09T17:35:13.057Z,11.12
2022-12-09T17:40:31.336Z,11.02
2022-12-09T17:42:59.769Z,10.96
2022-12-09T17:45:27.501Z,10.86
2022-12-09T17:47:54.307Z,10.86
2022-12-09T17:50:21.192Z,10.83
2022-12-09T17:52:48.007Z,10.84
2022-12-09T17:55:14.790Z,10.83
2022-12-09T17:57:41.630Z,10.84
2022-12-09T18:00:14.007Z,10.84
2022-12-09T18:02:41.814Z,10.82
2022-12-09T18:05:09.042Z,10.79
2022-12-09T18:07:35.870Z,10.77
2022-12-09T18:10:03.117Z,10.80
2022-12-09T18:12:29.987Z,10.82
2022-12-09T18:14:56.907Z,10.84
2022-12-09T18:17:25.312Z,10.84
2022-12-09T18:19:53.264Z,10.86
2022-12-09T18:22:20.052Z,10.83
2022-12-09T18:24:46.857Z,10.77
2022-12-09T18:27:13.944Z,10.79
2022-12-09T18:29:40.652Z,10.76
2022-12-09T18:32:08.022Z,10.75
2022-12-09T18:34:36.293Z,10.72
2022-12-09T18:37:03.768Z,10.72
2022-12-09T18:39:30.895Z,10.72
2022-12-09T18:41:58.272Z,10.69
2022-12-09T18:44:25.251Z,10.69
2022-12-09T18:46:53.884Z,10.68
2022-12-09T18:49:23.061Z,10.62
2022-12-09T18:51:52.603Z,10.63
2022-12-09T18:54:22.675Z,10.63
2022-12-09T18:56:50.230Z,10.62
2022-12-09T18:59:18.291Z,10.63
2022-12-09T19:01:47.341Z,10.61
2022-12-09T19:04:18.480Z,10.58
2022-12-09T19:06:48.560Z,10.52
2022-12-09T19:09:19.443Z,10.53
2022-12-09T19:11:48.632Z,10.51
2022-12-09T19:14:17.573Z,10.49
2022-12-09T19:16:46.234Z,10.53
2022-12-09T19:19:17.036Z,10.55
2022-12-09T19:21:44.871Z,10.51
2022-12-09T19:24:16.456Z,10.51
2022-12-09T19:26:43.993Z,10.49
2022-12-09T19:29:13.201Z,10.52
2022-12-09T19:31:43.290Z,10.48
2022-12-09T19:34:13.678Z,10.49
2022-12-09T19:36:40.964Z,10.48
2022-12-09T19:39:09.883Z,10.42
2022-12-09T19:41:38.645Z,10.39
2022-12-09T19:44:06.676Z,10.39
2022-12-09T19:46:34.773Z,10.41
2022-12-09T19:49:01.837Z,10.34
2022-12-09T19:51:28.685Z,10.34
2022-12-09T19:53:59.124Z,10.30
2022-12-09T19:56:27.091Z,10.27
2022-12-09T19:58:55.469Z,10.28
2022-12-09T20:01:25.263Z,10.27
2022-12-09T20:03:56.918Z,10.24
2022-12-09T20:06:24.161Z,10.21
2022-12-09T20:11:42.383Z,10.12
2022-12-09T20:14:13.414Z,10.14
2022-12-09T20:16:41.571Z,10.10
2022-12-09T20:19:10.185Z,10.08
2022-12-09T20:21:37.169Z,10.04
2022-12-09T20:24:04.685Z,9.97
2022-12-09T20:26:34.727Z,9.67
2022-12-09T20:29:06.183Z,9.43
2022-12-09T20:31:37.142Z,9.15
2022-12-09T20:34:10.577Z,8.87
2022-12-09T20:36:40.216Z,8.64
2022-12-09T20:39:12.248Z,8.57
2022-12-09T20:41:39.827Z,8.46
2022-12-09T20:44:07.366Z,8.14
2022-12-09T20:46:35.567Z,8.16
2022-12-09T20:49:02.649Z,7.87
2022-12-09T20:51:32.669Z,7.89
2022-12-09T20:54:00.620Z,7.95
2022-12-09T20:56:29.897Z,7.89
2022-12-09T20:58:57.518Z,7.93
2022-12-09T21:01:29.131Z,7.85
2022-12-09T21:03:59.534Z,7.79
2022-12-09T21:06:30.649Z,7.78
2022-12-09T21:09:00.687Z,7.75
2022-12-09T21:11:53.424Z,7.83
2022-12-09T21:14:20.523Z,7.86
2022-12-09T21:16:48.543Z,7.82
2022-12-09T21:19:20.575Z,7.75
2022-12-09T21:21:47.302Z,7.76
2022-12-09T21:24:15.743Z,7.73
2022-12-09T21:26:42.623Z,7.78
2022-12-09T21:29:11.150Z,7.79
2022-12-09T21:31:40.008Z,7.85
2022-12-09T21:34:09.279Z,7.51
2022-12-09T21:37:00.571Z,7.78
2022-12-09T21:39:28.348Z,7.85
2022-12-09T21:41:55.216Z,7.89
2022-12-09T21:44:24.655Z,7.90
2022-12-09T21:46:51.675Z,8.05
2022-12-09T21:49:18.922Z,7.99
2022-12-09T21:51:47.130Z,8.03
2022-12-09T21:54:13.890Z,8.07
2022-12-09T21:56:41.510Z,8.17
2022-12-09T21:59:10.708Z,8.03
2022-12-09T22:01:40.154Z,8.13
2022-12-09T22:04:10.391Z,8.16
2022-12-09T22:06:37.656Z,8.20
2022-12-09T22:09:07.691Z,7.90
2022-12-09T22:11:37.565Z,7.92
2022-12-09T22:14:06.219Z,8.09
2022-12-09T22:16:35.546Z,8.32
2022-12-09T22:19:04.489Z,8.50
2022-12-09T22:21:32.259Z,8.47
2022-12-09T22:24:02.975Z,8.55
2022-12-09T22:26:32.319Z,8.58
2022-12-09T22:29:00.372Z,8.47
2022-12-09T22:31:30.659Z,8.54
2022-12-09T22:34:00.981Z,8.51
2022-12-09T22:36:28.550Z,8.55
2022-12-09T22:38:55.811Z,8.51
2022-12-09T22:41:27.715Z,8.44
2022-12-09T22:43:56.663Z,8.40
2022-12-09T22:46:28.117Z,8.53
2022-12-09T22:48:56.042Z,8.43
2022-12-09T22:51:27.435Z,8.47
2022-12-09T22:53:56.534Z,8.40
2022-12-09T22:56:25.379Z,8.46
2022-12-09T22:58:52.261Z,8.64
2022-12-09T23:01:26.146Z,8.85
2022-12-09T23:03:55.069Z,8.98
2022-12-09T23:06:21.952Z,9.19
2022-12-09T23:08:48.884Z,9.28
2022-12-09T23:11:18.511Z,9.35
2022-12-09T23:13:45.985Z,9.38
2022-12-09T23:16:15.364Z,9.44
2022-12-09T23:18:44.131Z,9.44
2022-12-09T23:21:14.395Z,9.44
2022-12-09T23:23:42.318Z,9.49
2022-12-09T23:26:12.069Z,9.39
2022-12-09T23:28:41.231Z,9.29
2022-12-09T23:31:11.310Z,9.38
2022-12-09T23:33:40.519Z,9.44
2022-12-09T23:36:13.029Z,9.53
2022-12-09T23:38:40.021Z,9.56
2022-12-09T23:41:07.503Z,9.69
2022-12-09T23:43:36.783Z,9.77
2022-12-09T23:46:10.030Z,9.83
2022-12-09T23:48:42.007Z,9.98
2022-12-09T23:51:12.679Z,9.97
2022-12-09T23:53:41.499Z,10.02
2022-12-09T23:56:11.832Z,10.07
2022-12-09T23:58:38.706Z,10.08
